createdAt,value
2023-04-19T00:01:09.958Z,983.43
2023-04-19T00:06:41.242Z,983.1
2023-04-19T00:12:17.233Z,982.77
2023-04-19T00:17:49.275Z,983.09
2023-04-19T00:23:27.831Z,982.72
2023-04-19T00:28:59.686Z,982.98
2023-04-19T00:34:31.072Z,982.77
2023-04-19T00:40:03.084Z,982.76
2023-04-19T00:45:35.345Z,982.93
2023-04-19T00:51:06.467Z,983.15
2023-04-19T00:56:38.135Z,983.02
2023-04-19T01:02:10.246Z,983.13
2023-04-19T01:07:41.800Z,983.37
2023-04-19T01:13:17.926Z,983.22
2023-04-19T01:18:49.363Z,982.99
2023-04-19T01:24:21.263Z,982.84
2023-04-19T01:29:53.730Z,982.99
2023-04-19T01:35:24.822Z,982.77
2023-04-19T01:40:56.597Z,982.51
2023-04-19T01:46:29.835Z,982.76
2023-04-19T01:52:00.307Z,983.09
2023-04-19T01:57:31.548Z,983.2
2023-04-19T02:03:03.845Z,983.33
2023-04-19T02:08:35.101Z,983.15
2023-04-19T02:14:11.295Z,983.21
2023-04-19T02:19:42.697Z,983.13
2023-04-19T02:25:14.348Z,983.05
2023-04-19T02:30:46.066Z,982.96
2023-04-19T02:36:17.835Z,982.89
2023-04-19T02:47:21.262Z,982.62
2023-04-19T02:52:53.102Z,982.3
2023-04-19T02:58:24.880Z,982.64
2023-04-19T03:03:56.844Z,982.51
2023-04-19T03:09:28.487Z,982.74
2023-04-19T03:15:04.223Z,982.65
2023-04-19T03:20:36.101Z,982.6
2023-04-19T03:26:07.918Z,982.71
2023-04-19T03:31:40.366Z,982.72
2023-04-19T03:37:11.500Z,982.57
2023-04-19T03:42:43.181Z,982.56
2023-04-19T03:48:14.871Z,982.54
2023-04-19T03:53:46.842Z,982.45
2023-04-19T03:59:18.424Z,982.58
2023-04-19T04:04:50.549Z,982.3
2023-04-19T04:10:21.767Z,982.26
2023-04-19T04:15:58.012Z,982.11
2023-04-19T04:21:29.782Z,981.66
2023-04-19T04:27:01.358Z,981.69
2023-04-19T04:32:33.474Z,981.56
2023-04-19T04:38:25.371Z,981.63
2023-04-19T04:43:36.421Z,981.82
2023-04-19T04:49:08.058Z,981.78
2023-04-19T04:54:39.852Z,981.76
2023-04-19T05:00:11.568Z,982.2
2023-04-19T05:05:45.876Z,982.23
2023-04-19T05:11:15.520Z,982.41
2023-04-19T05:16:53.602Z,982.2
2023-04-19T05:22:25.011Z,982.55
2023-04-19T05:27:56.621Z,982.52
2023-04-19T05:33:28.471Z,982.37
2023-04-19T05:38:59.999Z,982.83
2023-04-19T05:44:31.899Z,982.15
2023-04-19T05:50:03.446Z,982.89
2023-04-19T05:55:35.300Z,983.04
2023-04-19T06:01:07.338Z,982.58
2023-04-19T06:06:39.192Z,982.22
2023-04-19T06:12:10.765Z,983.16
2023-04-19T06:17:47.020Z,982.62
2023-04-19T06:23:19.664Z,982.78
2023-04-19T06:28:50.051Z,982.45
2023-04-19T06:34:21.762Z,982.9
2023-04-19T06:39:53.612Z,983.12
2023-04-19T06:45:25.393Z,983.16
2023-04-19T06:50:56.974Z,983.14
2023-04-19T06:56:28.694Z,983.85
2023-04-19T07:02:00.515Z,983.27
2023-04-19T07:07:32.640Z,983.22
2023-04-19T07:13:04.191Z,983.39
2023-04-19T07:18:39.944Z,983.94
2023-04-19T07:24:11.589Z,984.03
2023-04-19T07:29:44.127Z,983.8
2023-04-19T07:35:15.092Z,983.5
2023-04-19T07:40:47.028Z,983.72
2023-04-19T07:46:18.743Z,984.33
2023-04-19T07:51:50.162Z,984.54
2023-04-19T07:57:21.867Z,984.48
2023-04-19T08:02:54.539Z,984.53
2023-04-19T08:08:25.510Z,984.81
2023-04-19T08:14:47.838Z,984.87
2023-04-19T08:19:35.481Z,983.93
2023-04-19T08:25:08.111Z,984.05
2023-04-19T08:30:38.705Z,984.31
2023-04-19T08:36:10.794Z,984.81
2023-04-19T08:41:46.315Z,984.63
2023-04-19T08:47:34.125Z,983.9
2023-04-19T08:53:02.955Z,984.27
2023-04-19T09:04:36.130Z,984.02
2023-04-19T09:15:02.829Z,983.67
2023-04-19T09:20:30.772Z,983.98
2023-04-19T09:26:22.590Z,984.15
2023-04-19T09:31:52.696Z,983.69
2023-04-19T09:37:57.158Z,984.9
2023-04-19T09:43:45.650Z,984.53
2023-04-19T09:48:09.413Z,984.5
2023-04-19T09:53:40.800Z,984.33
2023-04-19T09:59:26.235Z,984.35
2023-04-19T10:05:22.051Z,984.68
2023-04-19T10:10:45.914Z,984.25
2023-04-19T10:16:21.335Z,983.49
2023-04-19T10:21:49.051Z,983.77
2023-04-19T10:27:20.820Z,984.28
2023-04-19T10:32:52.759Z,983.99
2023-04-19T10:38:24.181Z,983.83
2023-04-19T10:43:56.106Z,983.57
2023-04-19T10:49:27.650Z,983.78
2023-04-19T10:54:59.506Z,983.59
2023-04-19T11:00:31.300Z,983.55
2023-04-19T11:06:03.819Z,983.89
2023-04-19T11:11:34.865Z,983.74
2023-04-19T11:17:06.672Z,982.83
2023-04-19T11:22:42.570Z,982.35
2023-04-19T11:28:14.369Z,982.73
2023-04-19T11:33:46.068Z,982.46
2023-04-19T11:39:17.634Z,982.61
2023-04-19T11:44:49.947Z,982.11
2023-04-19T11:50:20.886Z,981.98
2023-04-19T11:55:53.060Z,982.12
2023-04-19T12:01:24.477Z,981.37
2023-04-19T12:06:56.575Z,981.55
2023-04-19T12:12:27.777Z,981.1
2023-04-19T12:17:59.981Z,981.51
2023-04-19T12:23:36.016Z,981.09
2023-04-19T12:29:07.411Z,980.39
2023-04-19T12:34:39.353Z,981.3
2023-04-19T12:40:10.873Z,981.42
2023-04-19T12:45:42.931Z,981.82
2023-04-19T12:51:14.350Z,981.84
2023-04-19T12:57:11.104Z,981.24
2023-04-19T13:02:43.623Z,981.74
2023-04-19T13:08:15.719Z,981.3
2023-04-19T13:13:46.658Z,981.04
2023-04-19T13:19:18.327Z,981.25
2023-04-19T13:24:54.205Z,981.11
2023-04-19T13:30:26.319Z,980.75
2023-04-19T13:35:57.589Z,981.0
2023-04-19T13:41:29.350Z,981.52
2023-04-19T13:47:01.805Z,981.11
2023-04-19T13:52:32.908Z,981.33
2023-04-19T13:58:04.708Z,980.97
2023-04-19T14:03:37.025Z,981.23
2023-04-19T14:09:08.108Z,981.37
2023-04-19T14:14:39.659Z,980.72
2023-04-19T14:20:11.539Z,981.47
2023-04-19T14:25:49.856Z,980.82
2023-04-19T14:31:21.291Z,980.44
2023-04-19T14:36:53.960Z,980.92
2023-04-19T14:42:24.722Z,981.42
2023-04-19T14:47:56.595Z,981.75
2023-04-19T14:53:28.162Z,981.49
2023-04-19T14:59:00.019Z,981.05
2023-04-19T15:04:32.083Z,980.99
2023-04-19T15:10:04.575Z,980.89
2023-04-19T15:15:36.590Z,980.86
2023-04-19T15:21:08.248Z,979.4
2023-04-19T15:26:45.301Z,980.71
2023-04-19T15:32:14.613Z,980.7
2023-04-19T15:37:46.402Z,980.27
2023-04-19T15:43:18.206Z,980.24
2023-04-19T15:48:49.601Z,980.57
2023-04-19T15:54:21.713Z,980.97
2023-04-19T15:59:53.606Z,980.98
2023-04-19T16:05:25.271Z,981.32
2023-04-19T16:10:57.019Z,981.39
2023-04-19T16:16:28.800Z,981.46
2023-04-19T16:22:00.152Z,981.13
2023-04-19T16:27:36.637Z,980.63
2023-04-19T16:33:08.137Z,980.1
2023-04-19T16:38:39.590Z,980.35
2023-04-19T16:44:11.335Z,979.87
2023-04-19T16:49:43.220Z,979.92
2023-04-19T16:55:15.088Z,979.85
2023-04-19T17:00:46.559Z,979.22
2023-04-19T17:06:18.566Z,978.73
2023-04-19T17:11:50.068Z,978.7
2023-04-19T17:17:22.025Z,978.36
2023-04-19T17:22:53.481Z,978.58
2023-04-19T17:28:31.391Z,978.33
2023-04-19T17:34:03.105Z,977.99
2023-04-19T17:39:35.148Z,978.2
2023-04-19T17:45:06.660Z,977.89
2023-04-19T17:50:38.464Z,977.41
2023-04-19T17:56:09.942Z,977.81
2023-04-19T18:01:41.660Z,977.81
2023-04-19T18:07:13.841Z,977.71
2023-04-19T18:12:45.156Z,977.41
2023-04-19T18:18:16.870Z,976.98
2023-04-19T18:23:48.783Z,977.21
2023-04-19T18:29:25.056Z,977.64
2023-04-19T18:34:56.598Z,977.16
2023-04-19T18:40:28.212Z,976.52
2023-04-19T18:46:00.502Z,976.57
2023-04-19T18:51:31.840Z,976.62
2023-04-19T18:57:27.745Z,976.48
2023-04-19T19:02:35.667Z,975.91
2023-04-19T19:08:07.966Z,976.19
2023-04-19T19:13:38.745Z,975.88
2023-04-19T19:19:10.161Z,976.02
2023-04-19T19:24:42.364Z,975.97
2023-04-19T19:30:18.225Z,975.57
2023-04-19T19:35:49.776Z,975.68
2023-04-19T19:42:06.216Z,975.44
2023-04-19T19:46:53.305Z,975.18
2023-04-19T19:52:24.944Z,974.96
2023-04-19T19:58:35.240Z,974.31
2023-04-19T20:03:39.027Z,974.07
2023-04-19T20:09:01.021Z,974.22
2023-04-19T20:14:31.758Z,973.91
2023-04-19T20:20:03.547Z,973.84
2023-04-19T20:25:35.306Z,973.76
2023-04-19T20:31:13.575Z,973.75
2023-04-19T20:36:45.646Z,973.55
2023-04-19T20:42:17.360Z,973.52
2023-04-19T20:47:48.857Z,973.25
2023-04-19T20:53:20.454Z,973.39
2023-04-19T20:58:52.351Z,972.87
2023-04-19T21:04:24.553Z,972.91
2023-04-19T21:09:55.740Z,973.04
2023-04-19T21:15:27.205Z,973.55
2023-04-19T21:20:59.921Z,973.67
2023-04-19T21:26:30.749Z,973.61
2023-04-19T21:32:08.820Z,973.7
2023-04-19T21:37:40.640Z,973.56
2023-04-19T21:43:12.350Z,973.26
2023-04-19T21:48:43.968Z,972.75
2023-04-19T21:54:34.812Z,972.47
2023-04-19T21:59:47.333Z,972.0
2023-04-19T22:05:19.125Z,971.91
2023-04-19T22:10:51.003Z,972.12
2023-04-19T22:16:23.000Z,972.18
2023-04-19T22:21:54.485Z,972.4
2023-04-19T22:27:26.150Z,972.27
2023-04-19T22:33:02.370Z,972.43
2023-04-19T22:38:33.721Z,972.27
2023-04-19T22:44:05.749Z,972.19
2023-04-19T22:49:37.289Z,972.12
2023-04-19T22:55:10.163Z,972.08
2023-04-19T23:00:41.067Z,971.9
2023-04-19T23:06:12.757Z,971.64
2023-04-19T23:11:44.165Z,971.52
2023-04-19T23:17:15.744Z,971.48
2023-04-19T23:22:47.599Z,971.41
2023-04-19T23:28:19.235Z,971.34
2023-04-19T23:33:55.668Z,971.12
2023-04-19T23:39:27.177Z,971.08
2023-04-19T23:44:59.272Z,970.96
2023-04-19T23:50:30.724Z,970.96
2023-04-19T23:56:02.592Z,971.05
